createdAt,value
2023-03-11T00:01:20.253Z,1.03
2023-03-11T00:04:44.264Z,0.90
2023-03-11T00:08:12.932Z,0.90
2023-03-11T00:11:37.004Z,1.20
2023-03-11T00:15:00.753Z,1.10
2023-03-11T00:18:28.050Z,1.00
2023-03-11T00:21:51.645Z,1.10
2023-03-11T00:25:16.187Z,1.40
2023-03-11T00:28:40.891Z,1.03
2023-03-11T00:32:07.501Z,1.30
2023-03-11T00:35:35.160Z,0.90
2023-03-11T00:38:59.419Z,0.90
2023-03-11T00:42:23.606Z,0.90
2023-03-11T00:45:47.181Z,1.20
2023-03-11T00:49:12.443Z,1.00
2023-03-11T00:52:37.425Z,0.90
2023-03-11T00:56:07.166Z,1.00
2023-03-11T00:59:31.271Z,1.30
2023-03-11T01:02:56.284Z,1.10
2023-03-11T01:06:20.261Z,1.50
2023-03-11T01:09:45.928Z,1.30
2023-03-11T01:13:09.831Z,1.40
2023-03-11T01:16:33.773Z,1.50
2023-03-11T01:19:57.545Z,1.20
2023-03-11T01:23:21.722Z,1.50
2023-03-11T01:26:46.968Z,1.40
2023-03-11T01:30:21.536Z,1.30
2023-03-11T01:33:45.875Z,1.20
2023-03-11T01:37:09.812Z,1.20
2023-03-11T01:40:36.795Z,1.23
2023-03-11T01:44:07.843Z,1.30
2023-03-11T01:47:38.739Z,1.20
2023-03-11T01:51:04.518Z,1.27
2023-03-11T01:54:34.747Z,1.23
2023-03-11T01:58:00.638Z,1.50
2023-03-11T02:01:26.296Z,1.87
2023-03-11T02:04:52.703Z,1.30
2023-03-11T02:08:20.194Z,1.23
2023-03-11T02:11:44.408Z,1.40
2023-03-11T02:15:11.460Z,1.50
2023-03-11T02:18:37.822Z,1.20
2023-03-11T02:22:03.353Z,1.60
2023-03-11T02:25:40.425Z,1.10
2023-03-11T02:29:10.484Z,1.00
2023-03-11T02:32:35.673Z,1.20
2023-03-11T02:35:59.679Z,1.10
2023-03-11T02:39:32.417Z,1.00
2023-03-11T02:43:00.479Z,1.00
2023-03-11T02:46:27.297Z,1.00
2023-03-11T02:49:51.095Z,1.23
2023-03-11T02:53:16.186Z,0.90
2023-03-11T02:56:40.178Z,1.30
2023-03-11T03:00:10.981Z,1.20
2023-03-11T03:03:36.677Z,1.63
2023-03-11T03:07:00.480Z,1.30
2023-03-11T03:10:24.418Z,1.30
2023-03-11T03:13:48.377Z,1.20
2023-03-11T03:17:12.446Z,1.13
2023-03-11T03:20:37.682Z,1.10
2023-03-11T03:24:01.753Z,1.00
2023-03-11T03:27:26.305Z,1.20
2023-03-11T03:30:49.967Z,0.90
2023-03-11T03:34:14.244Z,1.30
2023-03-11T03:37:40.240Z,1.03
2023-03-11T03:41:04.540Z,1.20
2023-03-11T03:44:30.585Z,1.10
2023-03-11T03:47:56.272Z,0.90
2023-03-11T03:51:22.284Z,1.30
2023-03-11T03:54:58.889Z,0.80
2023-03-11T03:58:23.260Z,1.20
2023-03-11T04:01:47.422Z,1.30
2023-03-11T04:05:11.701Z,1.43
2023-03-11T04:08:37.797Z,1.00
2023-03-11T04:12:03.323Z,1.30
2023-03-11T04:15:29.516Z,1.20
2023-03-11T04:18:53.365Z,0.97
2023-03-11T04:22:18.306Z,0.90
2023-03-11T04:25:42.488Z,1.13
2023-03-11T04:29:07.589Z,0.97
2023-03-11T04:32:37.140Z,1.20
2023-03-11T04:36:05.631Z,1.07
2023-03-11T04:39:30.531Z,1.10
2023-03-11T04:42:55.102Z,0.90
2023-03-11T04:46:20.046Z,1.10
2023-03-11T04:49:44.510Z,1.43
2023-03-11T04:53:09.012Z,1.00
2023-03-11T04:56:32.965Z,1.10
2023-03-11T04:59:57.479Z,1.33
2023-03-11T05:03:22.530Z,1.10
2023-03-11T05:06:46.824Z,1.23
2023-03-11T05:10:12.969Z,1.20
2023-03-11T05:13:37.432Z,1.97
2023-03-11T05:17:01.273Z,1.20
2023-03-11T05:20:26.752Z,1.20
2023-03-11T05:23:50.532Z,1.00
2023-03-11T05:27:17.768Z,1.00
2023-03-11T05:30:44.090Z,1.10
2023-03-11T05:34:08.147Z,1.03
2023-03-11T05:37:35.258Z,1.10
2023-03-11T05:41:00.773Z,1.13
2023-03-11T05:44:24.754Z,1.20
2023-03-11T05:47:48.997Z,1.30
2023-03-11T05:51:14.609Z,1.10
2023-03-11T05:54:41.540Z,1.20
2023-03-11T05:58:05.334Z,1.00
2023-03-11T06:01:29.503Z,1.30
2023-03-11T06:04:53.578Z,0.80
2023-03-11T06:08:18.647Z,1.20
2023-03-11T06:11:44.985Z,1.50
2023-03-11T06:15:11.998Z,1.37
2023-03-11T06:18:37.202Z,0.90
2023-03-11T06:22:01.731Z,1.00
2023-03-11T06:25:26.353Z,1.00
2023-03-11T06:28:54.113Z,1.10
2023-03-11T06:32:17.870Z,1.10
2023-03-11T06:35:42.580Z,1.10
2023-03-11T06:39:06.933Z,1.07
2023-03-11T06:42:32.702Z,1.00
2023-03-11T06:45:58.542Z,1.20
2023-03-11T06:49:22.484Z,1.40
2023-03-11T06:52:46.973Z,1.30
2023-03-11T06:56:13.650Z,1.57
2023-03-11T06:59:42.418Z,1.20
2023-03-11T07:03:09.721Z,0.90
2023-03-11T07:06:33.689Z,0.80
2023-03-11T07:10:07.049Z,1.27
2023-03-11T07:13:30.977Z,1.00
2023-03-11T07:16:54.770Z,1.17
2023-03-11T07:20:26.394Z,1.10
2023-03-11T07:23:54.862Z,1.27
2023-03-11T07:27:18.801Z,0.97
2023-03-11T07:30:44.560Z,1.70
2023-03-11T07:34:11.346Z,1.30
2023-03-11T07:37:36.318Z,1.10
2023-03-11T07:41:00.759Z,1.30
2023-03-11T07:44:24.348Z,1.20
2023-03-11T07:47:48.543Z,1.33
2023-03-11T07:51:14.932Z,1.37
2023-03-11T07:54:40.329Z,1.00
2023-03-11T07:58:04.219Z,1.00
2023-03-11T08:01:36.112Z,1.90
2023-03-11T08:04:59.936Z,1.40
2023-03-11T08:08:23.418Z,1.33
2023-03-11T08:11:49.841Z,1.17
2023-03-11T08:15:13.487Z,1.40
2023-03-11T08:18:37.099Z,1.60
2023-03-11T08:22:03.532Z,1.40
2023-03-11T08:25:27.359Z,1.83
2023-03-11T10:07:45.741Z,0.80
2023-03-11T10:11:46.931Z,1.00
2023-03-11T10:19:22.758Z,0.80
2023-03-11T10:23:03.384Z,0.70
2023-03-11T10:26:37.028Z,0.90
2023-03-11T10:30:10.872Z,0.80
2023-03-11T10:33:47.632Z,0.70
2023-03-11T10:37:49.991Z,0.70
2023-03-11T10:41:32.543Z,0.80
2023-03-11T10:45:20.811Z,0.80
2023-03-11T10:48:44.565Z,0.90
2023-03-11T10:52:08.405Z,0.60
2023-03-11T10:55:31.988Z,0.90
2023-03-11T10:58:57.500Z,0.90
2023-03-11T11:02:28.065Z,0.80
2023-03-11T11:06:04.888Z,0.70
2023-03-11T11:09:31.078Z,1.17
2023-03-11T11:12:57.694Z,0.93
2023-03-11T11:16:23.242Z,0.90
2023-03-11T11:19:50.278Z,1.30
2023-03-11T11:23:28.092Z,0.90
2023-03-11T11:27:16.148Z,0.90
2023-03-11T11:30:56.146Z,1.07
2023-03-11T11:34:31.433Z,0.80
2023-03-11T11:38:04.327Z,1.00
2023-03-11T11:41:31.546Z,1.00
2023-03-11T11:45:04.555Z,0.80
2023-03-11T11:48:42.159Z,0.80
2023-03-11T11:52:14.627Z,1.60
2023-03-11T11:55:52.558Z,1.40
2023-03-11T11:59:20.102Z,1.17
2023-03-11T12:03:03.259Z,1.40
2023-03-11T12:06:38.891Z,1.00
2023-03-11T12:10:23.796Z,1.00
2023-03-11T12:14:05.933Z,0.90
2023-03-11T12:17:34.828Z,0.80
2023-03-11T12:21:00.646Z,0.97
2023-03-11T12:24:50.069Z,1.20
2023-03-11T12:28:25.706Z,0.90
2023-03-11T12:31:50.722Z,1.00
2023-03-11T12:35:24.715Z,0.90
2023-03-11T12:38:49.964Z,1.10
2023-03-11T12:42:22.612Z,0.90
2023-03-11T12:45:53.237Z,0.97
2023-03-11T12:49:16.875Z,0.73
2023-03-11T12:52:55.214Z,0.70
2023-03-11T12:56:35.088Z,0.90
2023-03-11T13:00:41.718Z,0.80
2023-03-11T13:04:31.345Z,0.80
2023-03-11T13:08:01.759Z,0.80
2023-03-11T13:11:42.713Z,0.80
2023-03-11T13:15:46.441Z,0.70
2023-03-11T13:19:49.924Z,0.87
2023-03-11T13:23:34.823Z,0.90
2023-03-11T13:27:09.937Z,0.80
2023-03-11T13:30:39.984Z,0.83
2023-03-11T13:34:15.876Z,1.30
2023-03-11T13:38:05.926Z,0.90
2023-03-11T13:41:36.027Z,0.90
2023-03-11T13:45:00.875Z,1.00
2023-03-11T13:48:31.730Z,0.93
2023-03-11T13:51:59.358Z,1.00
2023-03-11T13:55:33.114Z,0.80
2023-03-11T13:59:17.417Z,0.90
2023-03-11T14:02:51.003Z,0.80
2023-03-11T14:06:19.717Z,0.80
2023-03-11T14:09:43.691Z,0.80
2023-03-11T14:13:18.352Z,0.90
2023-03-11T14:16:44.324Z,0.70
2023-03-11T14:20:16.329Z,1.00
2023-03-11T14:23:44.880Z,0.80
2023-03-11T14:27:10.884Z,0.90
2023-03-11T14:30:36.360Z,1.10
2023-03-11T14:34:06.706Z,0.70
2023-03-11T14:37:35.514Z,1.10
2023-03-11T14:41:00.796Z,0.80
2023-03-11T14:44:27.579Z,0.70
2023-03-11T14:47:59.486Z,0.70
2023-03-11T14:51:33.339Z,0.80
2023-03-11T14:54:58.933Z,0.80
2023-03-11T14:58:30.470Z,0.80
2023-03-11T15:02:00.546Z,0.80
2023-03-11T15:05:35.766Z,1.03
2023-03-11T15:09:04.350Z,0.80
2023-03-11T15:12:36.470Z,0.80
2023-03-11T15:16:02.382Z,0.80
2023-03-11T15:19:34.621Z,0.80
2023-03-11T15:23:02.522Z,0.90
2023-03-11T15:26:29.873Z,0.90
2023-03-11T15:29:54.602Z,1.10
2023-03-11T15:33:45.671Z,1.10
2023-03-11T15:37:30.481Z,0.70
2023-03-11T15:41:04.004Z,1.07
2023-03-11T15:44:38.249Z,0.93
2023-03-11T15:48:02.727Z,0.90
2023-03-11T15:51:26.878Z,0.90
2023-03-11T15:54:55.896Z,0.83
2023-03-11T15:58:22.681Z,0.90
2023-03-11T16:01:47.536Z,0.70
2023-03-11T16:05:18.254Z,0.90
2023-03-11T16:08:41.952Z,0.80
2023-03-11T16:12:16.107Z,1.00
2023-03-11T16:15:42.264Z,1.30
2023-03-11T16:19:07.161Z,1.00
2023-03-11T16:22:37.518Z,0.90
2023-03-11T16:26:04.383Z,1.00
2023-03-11T16:29:28.245Z,0.90
2023-03-11T16:32:53.614Z,1.03
2023-03-11T16:36:17.495Z,0.77
2023-03-11T16:39:41.613Z,1.20
2023-03-11T16:43:08.741Z,0.87
2023-03-11T16:46:32.304Z,1.10
2023-03-11T16:49:57.189Z,1.00
2023-03-11T16:53:20.859Z,1.00
2023-03-11T16:56:45.137Z,0.87
2023-03-11T17:00:11.120Z,1.10
2023-03-11T17:03:42.568Z,0.87
2023-03-11T17:07:09.305Z,1.10
2023-03-11T17:10:39.137Z,0.90
2023-03-11T17:14:15.496Z,0.90
2023-03-11T17:17:40.052Z,0.87
2023-03-11T17:21:08.193Z,1.00
2023-03-11T17:24:33.189Z,0.80
2023-03-11T17:27:57.015Z,1.03
2023-03-11T17:31:20.780Z,0.70
2023-03-11T17:34:44.586Z,1.00
2023-03-11T17:38:08.285Z,0.90
2023-03-11T17:41:33.692Z,0.80
2023-03-11T17:44:58.595Z,1.17
2023-03-11T17:48:22.319Z,1.00
2023-03-11T17:51:46.207Z,1.17
2023-03-11T17:55:11.097Z,1.00
2023-03-11T17:58:36.928Z,0.80
2023-03-11T18:02:00.982Z,1.57
2023-03-11T18:05:25.087Z,1.10
2023-03-11T18:08:49.159Z,1.10
2023-03-11T18:12:13.185Z,1.20
2023-03-11T18:15:38.040Z,1.30
2023-03-11T18:19:01.924Z,1.10
2023-03-11T18:22:26.236Z,1.00
2023-03-11T18:25:52.661Z,1.00
2023-03-11T18:29:16.419Z,1.20
2023-03-11T18:32:41.858Z,1.00
2023-03-11T18:36:17.639Z,0.90
2023-03-11T18:39:41.356Z,1.00
2023-03-11T18:43:05.748Z,1.00
2023-03-11T18:46:32.368Z,1.23
2023-03-11T18:49:57.272Z,1.10
2023-03-11T18:53:21.862Z,3.40
2023-03-11T18:56:45.365Z,12.63
2023-03-11T19:00:10.961Z,6.60
2023-03-11T19:03:35.079Z,3.70
2023-03-11T19:07:00.167Z,3.10
2023-03-11T19:10:24.031Z,1.57
2023-03-11T19:13:48.393Z,1.77
2023-03-11T19:17:12.927Z,1.70
2023-03-11T19:20:36.489Z,1.43
2023-03-11T19:24:01.437Z,1.27
2023-03-11T19:27:25.025Z,1.63
2023-03-11T19:30:52.335Z,1.63
2023-03-11T19:34:16.005Z,2.50
2023-03-11T19:37:39.678Z,3.10
2023-03-11T19:41:08.798Z,3.33
2023-03-11T19:44:32.303Z,3.63
2023-03-11T19:47:56.576Z,4.60
2023-03-11T19:51:20.091Z,3.10
2023-03-11T19:54:44.210Z,2.40
2023-03-11T19:58:09.040Z,2.10
2023-03-11T20:01:32.629Z,2.17
2023-03-11T20:04:56.322Z,1.60
2023-03-11T20:08:22.647Z,1.93
2023-03-11T20:11:46.534Z,1.90
2023-03-11T20:15:12.568Z,2.67
2023-03-11T20:18:36.460Z,2.30
2023-03-11T20:22:00.025Z,2.13
2023-03-11T20:25:24.901Z,2.00
2023-03-11T20:28:48.742Z,2.20
2023-03-11T20:32:13.598Z,2.23
2023-03-11T20:35:37.237Z,2.10
2023-03-11T20:39:01.195Z,2.03
2023-03-11T20:42:25.456Z,2.00
2023-03-11T20:45:49.649Z,1.60
2023-03-11T20:49:14.783Z,2.07
2023-03-11T20:52:38.441Z,2.37
2023-03-11T20:56:09.544Z,1.90
2023-03-11T20:59:33.287Z,2.43
2023-03-11T21:02:56.899Z,2.07
2023-03-11T21:06:24.741Z,1.70
2023-03-11T21:09:54.331Z,2.40
2023-03-11T21:13:18.048Z,1.70
2023-03-11T21:16:42.637Z,1.90
2023-03-11T21:20:07.581Z,2.20
2023-03-11T21:23:32.507Z,1.80
2023-03-11T21:26:56.040Z,2.30
2023-03-11T21:30:19.961Z,2.10
2023-03-11T21:33:44.019Z,2.10
2023-03-11T21:37:07.879Z,2.30
2023-03-11T21:40:32.897Z,2.37
2023-03-11T21:43:58.273Z,2.30
2023-03-11T21:47:21.868Z,1.63
2023-03-11T21:50:45.702Z,2.63
2023-03-11T21:54:10.854Z,2.23
2023-03-11T21:57:35.806Z,4.13
2023-03-11T22:00:59.479Z,3.10
2023-03-11T22:04:23.770Z,2.20
2023-03-11T22:07:48.603Z,2.77
2023-03-11T22:11:18.385Z,2.50
2023-03-11T22:14:43.711Z,2.53
2023-03-11T22:18:07.796Z,2.63
2023-03-11T22:21:31.434Z,2.23
2023-03-11T22:24:54.983Z,2.40
2023-03-11T22:28:18.611Z,2.13
2023-03-11T22:31:43.508Z,2.20
2023-03-11T22:35:08.131Z,2.63
2023-03-11T22:38:32.575Z,2.20
2023-03-11T22:41:56.870Z,1.67
2023-03-11T22:45:22.256Z,1.97
2023-03-11T22:48:47.472Z,2.10
2023-03-11T22:52:11.072Z,2.03
2023-03-11T22:55:34.942Z,1.90
2023-03-11T22:58:59.257Z,2.30
2023-03-11T23:02:22.907Z,2.43
2023-03-11T23:05:48.054Z,2.10
2023-03-11T23:09:11.582Z,1.93
2023-03-11T23:12:37.019Z,2.20
2023-03-11T23:16:05.502Z,2.00
2023-03-11T23:19:29.165Z,2.40
2023-03-11T23:22:54.250Z,2.77
2023-03-11T23:26:19.924Z,2.10
2023-03-11T23:29:44.313Z,3.30
2023-03-11T23:33:08.282Z,2.30
2023-03-11T23:36:32.973Z,2.27
2023-03-11T23:39:58.515Z,2.17
2023-03-11T23:43:22.087Z,1.90
2023-03-11T23:46:45.646Z,2.00
2023-03-11T23:50:10.722Z,2.33
2023-03-11T23:53:34.616Z,2.23
2023-03-11T23:56:59.480Z,2.70
